Honolulu, HI (96801)

2:11 AM HST on July 29, 2016 (GMT -1000)
Nuuanu | | Change Station

Elev 374 ft 21.33 °N, 157.84 °W | Updated 15 seconds ago

Scattered Clouds
Scattered Clouds
75.4 °F
Feels Like 77 °F
N
5.3
Wind Variable Wind from North

Today
High -- | Low -- °F
--% Chance of Precip.
Yesterday
High -- | Low -- °F
Precip. -- in
Pressure 30.02 in
Visibility 10.0 miles
Clouds Few 2600 ft
Scattered Clouds 5000 ft
Scattered Clouds 6000 ft
Heat Index 77 °F
Dew Point 64 °F
Humidity 67%
Rainfall 0.00 in
Snow Depth Not available.
6:03 AM 7:11 PM
Waning Crescent, 22% visible
METAR PHNL 291153Z 04008KT 10SM FEW026 SCT050 SCT060 26/18 A3002 RMK AO2 RAB12E22 SLP165 P0000 60000 T02560183 10267 20256 58013
Pressure 30.02 in
Visibility 10.0 miles
Clouds Few 2600 ft
Scattered Clouds 5000 ft
Scattered Clouds 6000 ft
Heat Index 77 °F
Dew Point 64 °F
Humidity 67%
Rainfall 0.00 in
Snow Depth Not available.
6:03 AM 7:11 PM
Waning Crescent, 22% visible
METAR PHNL 291153Z 04008KT 10SM FEW026 SCT050 SCT060 26/18 A3002 RMK AO2 RAB12E22 SLP165 P0000 60000 T02560183 10267 20256 58013

10-Day Weather Forecast

Almanac

Astronomy

Jul. 29, 2016 Rise Set
Actual Time
Civil Twilight
Nautical Twilight
Astronomical Twilight
Moon
Length of Visible Light
Length of Day
Tomorrow will be .
, % of the Moon is Illuminated

Today's Extremes

State Highs State Lows

Community

WunderPhotos

Upload Photos

1,928,330 photos uploaded!

WunderBlog® & News

Nearby

Air Quality

  Air Quality AQ Index Pollutant
Not available.

Snow Depth

Station Depth Elevation

Earthquake Activity

City Distance Mag. Time & Date
Minimum magnitude displayed is 2.5.

Coastal Water Temperatures

Place Temperature

Stations

Nearby Weather Stations

Station Location Temp. Windchill Dew Point Humidity Wind Precip. Elev Updated Type
                   

Watches & Warnings

There are currently no watches in effect.